sensor_id;sensor_type;location;lat;lon;timestamp;pressure;altitude;pressure_sealevel;temperature;humidity
34034;BME280;63481;52.588;22.472;2023-05-12T00:00:05;101001.62;;;9.38;51.29
34034;BME280;63481;52.588;22.472;2023-05-12T00:01:03;101002.96;;;9.40;50.85
34034;BME280;63481;52.588;22.472;2023-05-12T00:01:35;101002.39;;;9.40;50.61
34034;BME280;63481;52.588;22.472;2023-05-12T00:02:07;101003.80;;;9.37;50.87
34034;BME280;63481;52.588;22.472;2023-05-12T00:02:39;100999.69;;;9.35;51.30
34034;BME280;63481;52.588;22.472;2023-05-12T00:03:11;101000.56;;;9.33;51.00
34034;BME280;63481;52.588;22.472;2023-05-12T00:03:43;101006.67;;;9.30;50.95
34034;BME280;63481;52.588;22.472;2023-05-12T00:04:15;101010.63;;;9.28;50.80
34034;BME280;63481;52.588;22.472;2023-05-12T00:04:47;101011.27;;;9.28;51.17
34034;BME280;63481;52.588;22.472;2023-05-12T00:05:19;101010.78;;;9.28;51.16
34034;BME280;63481;52.588;22.472;2023-05-12T00:05:51;101011.77;;;9.32;51.07
34034;BME280;63481;52.588;22.472;2023-05-12T00:06:23;101008.89;;;9.35;50.86
34034;BME280;63481;52.588;22.472;2023-05-12T00:06:55;101007.45;;;9.32;50.84
34034;BME280;63481;52.588;22.472;2023-05-12T00:07:27;101007.98;;;9.28;51.07
34034;BME280;63481;52.588;22.472;2023-05-12T00:07:58;101008.85;;;9.25;51.13
34034;BME280;63481;52.588;22.472;2023-05-12T00:08:30;101010.08;;;9.29;50.96
34034;BME280;63481;52.588;22.472;2023-05-12T00:09:02;101010.15;;;9.32;51.30
34034;BME280;63481;52.588;22.472;2023-05-12T00:09:34;101008.81;;;9.29;50.70
34034;BME280;63481;52.588;22.472;2023-05-12T00:10:06;101012.73;;;9.26;51.11
34034;BME280;63481;52.588;22.472;2023-05-12T00:10:38;101010.80;;;9.26;50.92
34034;BME280;63481;52.588;22.472;2023-05-12T00:11:10;101010.56;;;9.31;50.97
34034;BME280;63481;52.588;22.472;2023-05-12T00:11:42;101010.93;;;9.34;50.97
34034;BME280;63481;52.588;22.472;2023-05-12T00:12:14;101013.58;;;9.28;51.01
34034;BME280;63481;52.588;22.472;2023-05-12T00:12:46;101011.71;;;9.24;51.41
34034;BME280;63481;52.588;22.472;2023-05-12T00:13:18;101012.58;;;9.20;51.34
34034;BME280;63481;52.588;22.472;2023-05-12T00:13:54;101013.35;;;9.15;51.45
34034;BME280;63481;52.588;22.472;2023-05-12T00:14:26;101011.94;;;9.12;51.30
34034;BME280;63481;52.588;22.472;2023-05-12T00:14:58;101015.21;;;9.11;51.59
34034;BME280;63481;52.588;22.472;2023-05-12T00:15:30;101010.45;;;9.11;51.55
34034;BME280;63481;52.588;22.472;2023-05-12T00:16:02;101013.50;;;9.18;51.34
34034;BME280;63481;52.588;22.472;2023-05-12T00:16:34;101015.27;;;9.17;51.54
34034;BME280;63481;52.588;22.472;2023-05-12T00:17:06;101014.88;;;9.16;50.90
34034;BME280;63481;52.588;22.472;2023-05-12T00:17:38;101014.27;;;9.16;51.21
34034;BME280;63481;52.588;22.472;2023-05-12T00:18:10;101015.45;;;9.15;51.20
34034;BME280;63481;52.588;22.472;2023-05-12T00:18:42;101011.38;;;9.12;51.26
34034;BME280;63481;52.588;22.472;2023-05-12T00:19:14;101014.48;;;9.15;51.45
34034;BME280;63481;52.588;22.472;2023-05-12T00:19:46;101009.13;;;9.15;51.46
34034;BME280;63481;52.588;22.472;2023-05-12T00:20:18;101010.62;;;9.11;51.24
34034;BME280;63481;52.588;22.472;2023-05-12T00:20:50;101011.77;;;9.11;51.51
34034;BME280;63481;52.588;22.472;2023-05-12T00:21:24;101012.59;;;9.16;51.50
34034;BME280;63481;52.588;22.472;2023-05-12T00:21:56;101014.33;;;9.19;51.28
34034;BME280;63481;52.588;22.472;2023-05-12T00:22:28;101012.81;;;9.24;51.33
34034;BME280;63481;52.588;22.472;2023-05-12T00:23:00;101013.08;;;9.20;50.97
34034;BME280;63481;52.588;22.472;2023-05-12T00:23:32;101018.00;;;9.17;51.27
34034;BME280;63481;52.588;22.472;2023-05-12T00:24:04;101010.15;;;9.17;51.14
34034;BME280;63481;52.588;22.472;2023-05-12T00:24:36;101013.56;;;9.13;51.29
34034;BME280;63481;52.588;22.472;2023-05-12T00:25:08;101013.17;;;9.12;51.43
34034;BME280;63481;52.588;22.472;2023-05-12T00:25:40;101012.96;;;9.10;51.38
34034;BME280;63481;52.588;22.472;2023-05-12T00:26:12;101014.37;;;9.08;51.28
34034;BME280;63481;52.588;22.472;2023-05-12T00:26:44;101015.61;;;9.11;51.15
34034;BME280;63481;52.588;22.472;2023-05-12T00:27:16;101011.10;;;9.10;51.52
34034;BME280;63481;52.588;22.472;2023-05-12T00:27:48;101012.98;;;9.08;51.28
34034;BME280;63481;52.588;22.472;2023-05-12T00:28:20;101013.39;;;9.08;51.46
34034;BME280;63481;52.588;22.472;2023-05-12T00:28:51;101011.46;;;9.06;51.37
34034;BME280;63481;52.588;22.472;2023-05-12T00:29:23;101012.89;;;9.03;51.75
34034;BME280;63481;52.588;22.472;2023-05-12T00:29:55;101012.99;;;9.06;51.42
34034;BME280;63481;52.588;22.472;2023-05-12T00:30:27;101012.70;;;9.15;51.27
34034;BME280;63481;52.588;22.472;2023-05-12T00:31:01;101014.25;;;9.11;51.35
34034;BME280;63481;52.588;22.472;2023-05-12T00:31:34;101014.67;;;9.09;51.37
34034;BME280;63481;52.588;22.472;2023-05-12T00:32:06;101011.50;;;9.10;51.63
34034;BME280;63481;52.588;22.472;2023-05-12T00:32:38;101014.55;;;9.07;51.62
34034;BME280;63481;52.588;22.472;2023-05-12T00:33:10;101014.76;;;9.06;51.50
34034;BME280;63481;52.588;22.472;2023-05-12T00:33:42;101013.55;;;9.03;51.43
34034;BME280;63481;52.588;22.472;2023-05-12T00:34:14;101013.61;;;8.97;51.62
34034;BME280;63481;52.588;22.472;2023-05-12T00:34:46;101012.48;;;8.98;51.89
34034;BME280;63481;52.588;22.472;2023-05-12T00:35:18;101013.15;;;8.97;51.85
34034;BME280;63481;52.588;22.472;2023-05-12T00:35:50;101014.44;;;8.95;51.64
34034;BME280;63481;52.588;22.472;2023-05-12T00:36:22;101013.89;;;8.94;51.96
34034;BME280;63481;52.588;22.472;2023-05-12T00:36:54;101018.14;;;8.92;52.07
34034;BME280;63481;52.588;22.472;2023-05-12T00:37:25;101015.39;;;8.90;52.41
34034;BME280;63481;52.588;22.472;2023-05-12T00:37:57;101019.17;;;8.86;52.48
34034;BME280;63481;52.588;22.472;2023-05-12T00:38:29;101013.10;;;8.85;52.28
34034;BME280;63481;52.588;22.472;2023-05-12T00:39:01;101013.29;;;8.88;52.00
34034;BME280;63481;52.588;22.472;2023-05-12T00:39:34;101016.23;;;8.93;51.75
34034;BME280;63481;52.588;22.472;2023-05-12T00:40:07;101013.20;;;9.05;51.79
34034;BME280;63481;52.588;22.472;2023-05-12T00:40:39;101012.30;;;9.05;51.78
34034;BME280;63481;52.588;22.472;2023-05-12T00:41:11;101014.81;;;9.03;51.61
34034;BME280;63481;52.588;22.472;2023-05-12T00:41:43;101016.50;;;9.01;51.51
34034;BME280;63481;52.588;22.472;2023-05-12T00:42:15;101013.71;;;8.97;51.60
34034;BME280;63481;52.588;22.472;2023-05-12T00:42:47;101017.75;;;9.00;51.89
34034;BME280;63481;52.588;22.472;2023-05-12T00:43:20;101015.27;;;8.99;51.50
34034;BME280;63481;52.588;22.472;2023-05-12T00:43:52;101015.98;;;8.99;51.71
34034;BME280;63481;52.588;22.472;2023-05-12T00:44:24;101016.63;;;8.99;51.76
34034;BME280;63481;52.588;22.472;2023-05-12T00:44:55;101018.08;;;8.96;51.82
34034;BME280;63481;52.588;22.472;2023-05-12T00:45:27;101015.64;;;8.92;51.94
34034;BME280;63481;52.588;22.472;2023-05-12T00:46:01;101016.28;;;8.93;51.96
34034;BME280;63481;52.588;22.472;2023-05-12T00:46:35;101018.96;;;8.90;51.88
34034;BME280;63481;52.588;22.472;2023-05-12T00:47:07;101018.72;;;8.86;51.92
34034;BME280;63481;52.588;22.472;2023-05-12T00:47:40;101017.54;;;8.82;52.28
34034;BME280;63481;52.588;22.472;2023-05-12T00:48:12;101018.20;;;8.80;52.50
34034;BME280;63481;52.588;22.472;2023-05-12T00:48:44;101020.95;;;8.80;52.58
34034;BME280;63481;52.588;22.472;2023-05-12T00:49:17;101018.52;;;8.83;52.02
34034;BME280;63481;52.588;22.472;2023-05-12T00:49:50;101021.44;;;8.81;52.32
34034;BME280;63481;52.588;22.472;2023-05-12T00:50:22;101017.48;;;8.80;52.54
34034;BME280;63481;52.588;22.472;2023-05-12T00:50:54;101021.30;;;8.76;52.16
34034;BME280;63481;52.588;22.472;2023-05-12T00:51:27;101019.92;;;8.74;52.44
34034;BME280;63481;52.588;22.472;2023-05-12T00:52:01;101019.27;;;8.75;52.26
34034;BME280;63481;52.588;22.472;2023-05-12T00:52:34;101023.19;;;8.78;52.46
34034;BME280;63481;52.588;22.472;2023-05-12T00:53:06;101020.22;;;8.79;52.28
34034;BME280;63481;52.588;22.472;2023-05-12T00:53:38;101020.80;;;8.82;52.01
34034;BME280;63481;52.588;22.472;2023-05-12T00:54:10;101021.07;;;8.83;52.27
34034;BME280;63481;52.588;22.472;2023-05-12T00:54:43;101023.81;;;8.80;52.05
34034;BME280;63481;52.588;22.472;2023-05-12T00:55:15;101021.58;;;8.75;52.14
34034;BME280;63481;52.588;22.472;2023-05-12T00:55:47;101021.30;;;8.73;52.14
34034;BME280;63481;52.588;22.472;2023-05-12T00:56:19;101020.80;;;8.73;52.35
34034;BME280;63481;52.588;22.472;2023-05-12T00:56:52;101019.90;;;8.73;52.09
34034;BME280;63481;52.588;22.472;2023-05-12T00:57:26;101021.66;;;8.73;52.34
34034;BME280;63481;52.588;22.472;2023-05-12T00:57:59;101017.71;;;8.70;52.46
34034;BME280;63481;52.588;22.472;2023-05-12T00:58:32;101025.89;;;8.71;52.31
34034;BME280;63481;52.588;22.472;2023-05-12T00:59:05;101025.66;;;8.70;52.34
34034;BME280;63481;52.588;22.472;2023-05-12T00:59:37;101029.55;;;8.70;52.23
34034;BME280;63481;52.588;22.472;2023-05-12T01:00:10;101030.48;;;8.70;52.50
34034;BME280;63481;52.588;22.472;2023-05-12T01:00:42;101025.56;;;8.70;52.39
34034;BME280;63481;52.588;22.472;2023-05-12T01:01:16;101031.56;;;8.67;52.41
34034;BME280;63481;52.588;22.472;2023-05-12T01:01:49;101029.82;;;8.62;52.27
34034;BME280;63481;52.588;22.472;2023-05-12T01:02:21;101028.73;;;8.62;52.19
34034;BME280;63481;52.588;22.472;2023-05-12T01:02:55;101033.80;;;8.65;52.64
34034;BME280;63481;52.588;22.472;2023-05-12T01:03:31;101030.27;;;8.64;52.49
34034;BME280;63481;52.588;22.472;2023-05-12T01:04:04;101033.05;;;8.67;52.36
34034;BME280;63481;52.588;22.472;2023-05-12T01:04:37;101037.46;;;8.68;52.28
34034;BME280;63481;52.588;22.472;2023-05-12T01:05:11;101034.59;;;8.67;52.41
34034;BME280;63481;52.588;22.472;2023-05-12T01:06:01;101034.41;;;8.70;52.21
34034;BME280;63481;52.588;22.472;2023-05-12T01:06:44;101033.60;;;8.71;52.32
34034;BME280;63481;52.588;22.472;2023-05-12T01:07:23;101027.73;;;8.74;51.98
34034;BME280;63481;52.588;22.472;2023-05-12T01:07:58;101029.44;;;8.73;52.10
34034;BME280;63481;52.588;22.472;2023-05-12T01:08:31;101031.80;;;8.73;51.85
34034;BME280;63481;52.588;22.472;2023-05-12T01:09:04;101034.80;;;8.71;52.03
34034;BME280;63481;52.588;22.472;2023-05-12T01:09:36;101030.59;;;8.74;52.04
34034;BME280;63481;52.588;22.472;2023-05-12T01:10:18;101033.11;;;8.70;52.00
34034;BME280;63481;52.588;22.472;2023-05-12T01:10:51;101034.66;;;8.66;52.27
34034;BME280;63481;52.588;22.472;2023-05-12T01:11:24;101034.16;;;8.64;52.28
34034;BME280;63481;52.588;22.472;2023-05-12T01:11:56;101035.17;;;8.63;52.60
34034;BME280;63481;52.588;22.472;2023-05-12T01:12:28;101037.85;;;8.60;52.03
34034;BME280;63481;52.588;22.472;2023-05-12T01:13:00;101035.09;;;8.60;52.41
34034;BME280;63481;52.588;22.472;2023-05-12T01:13:32;101036.98;;;8.60;52.22
34034;BME280;63481;52.588;22.472;2023-05-12T01:14:04;101037.80;;;8.59;52.42
34034;BME280;63481;52.588;22.472;2023-05-12T01:14:37;101039.23;;;8.56;52.56
34034;BME280;63481;52.588;22.472;2023-05-12T01:15:10;101036.02;;;8.59;52.58
34034;BME280;63481;52.588;22.472;2023-05-12T01:15:46;101038.02;;;8.62;51.91
34034;BME280;63481;52.588;22.472;2023-05-12T01:16:22;101037.77;;;8.62;52.22
34034;BME280;63481;52.588;22.472;2023-05-12T01:16:58;101039.23;;;8.64;52.30
34034;BME280;63481;52.588;22.472;2023-05-12T01:17:34;101039.48;;;8.61;52.35
34034;BME280;63481;52.588;22.472;2023-05-12T01:18:08;101037.02;;;8.66;52.38
34034;BME280;63481;52.588;22.472;2023-05-12T01:18:42;101041.23;;;8.65;52.27
34034;BME280;63481;52.588;22.472;2023-05-12T01:19:42;101037.40;;;8.63;52.38
34034;BME280;63481;52.588;22.472;2023-05-12T01:20:17;101038.56;;;8.63;52.24
34034;BME280;63481;52.588;22.472;2023-05-12T01:20:54;101037.25;;;8.67;52.01
34034;BME280;63481;52.588;22.472;2023-05-12T01:21:26;101037.23;;;8.68;51.93
34034;BME280;63481;52.588;22.472;2023-05-12T01:21:58;101041.89;;;8.68;51.84
34034;BME280;63481;52.588;22.472;2023-05-12T01:22:31;101041.89;;;8.68;51.92
34034;BME280;63481;52.588;22.472;2023-05-12T01:23:05;101039.61;;;8.68;51.81
34034;BME280;63481;52.588;22.472;2023-05-12T01:23:41;101038.10;;;8.64;52.07
34034;BME280;63481;52.588;22.472;2023-05-12T01:24:16;101037.02;;;8.61;52.30
34034;BME280;63481;52.588;22.472;2023-05-12T01:24:56;101038.38;;;8.65;51.94
34034;BME280;63481;52.588;22.472;2023-05-12T01:25:32;101039.00;;;8.62;52.17
34034;BME280;63481;52.588;22.472;2023-05-12T01:26:07;101038.23;;;8.57;52.42
34034;BME280;63481;52.588;22.472;2023-05-12T01:26:40;101041.05;;;8.51;52.29
34034;BME280;63481;52.588;22.472;2023-05-12T01:27:13;101038.48;;;8.52;52.30
34034;BME280;63481;52.588;22.472;2023-05-12T01:27:47;101043.27;;;8.51;52.34
34034;BME280;63481;52.588;22.472;2023-05-12T01:28:20;101040.29;;;8.56;52.22
34034;BME280;63481;52.588;22.472;2023-05-12T01:28:53;101040.33;;;8.57;52.30
34034;BME280;63481;52.588;22.472;2023-05-12T01:29:26;101036.92;;;8.59;52.22
34034;BME280;63481;52.588;22.472;2023-05-12T01:30:03;101037.38;;;8.58;52.31
34034;BME280;63481;52.588;22.472;2023-05-12T01:30:39;101040.23;;;8.53;52.32
34034;BME280;63481;52.588;22.472;2023-05-12T01:31:16;101040.91;;;8.52;52.57
34034;BME280;63481;52.588;22.472;2023-05-12T01:31:48;101040.02;;;8.58;52.16
34034;BME280;63481;52.588;22.472;2023-05-12T01:32:21;101042.65;;;8.59;51.98
34034;BME280;63481;52.588;22.472;2023-05-12T01:32:52;101041.88;;;8.58;52.20
34034;BME280;63481;52.588;22.472;2023-05-12T01:33:25;101040.55;;;8.57;52.12
34034;BME280;63481;52.588;22.472;2023-05-12T01:33:57;101042.65;;;8.57;51.84
34034;BME280;63481;52.588;22.472;2023-05-12T01:34:29;101040.26;;;8.56;52.29
34034;BME280;63481;52.588;22.472;2023-05-12T01:35:01;101041.28;;;8.58;52.08
34034;BME280;63481;52.588;22.472;2023-05-12T01:35:35;101038.47;;;8.56;52.25
34034;BME280;63481;52.588;22.472;2023-05-12T01:36:07;101040.02;;;8.56;52.38
34034;BME280;63481;52.588;22.472;2023-05-12T01:36:39;101042.16;;;8.55;51.95
34034;BME280;63481;52.588;22.472;2023-05-12T01:37:11;101042.54;;;8.52;52.28
34034;BME280;63481;52.588;22.472;2023-05-12T01:37:43;101041.48;;;8.50;52.20
34034;BME280;63481;52.588;22.472;2023-05-12T01:38:16;101047.17;;;8.48;52.42
34034;BME280;63481;52.588;22.472;2023-05-12T01:38:49;101041.30;;;8.47;52.45
34034;BME280;63481;52.588;22.472;2023-05-12T01:39:21;101044.64;;;8.50;52.45
34034;BME280;63481;52.588;22.472;2023-05-12T01:39:53;101040.52;;;8.52;52.51
34034;BME280;63481;52.588;22.472;2023-05-12T01:40:26;101044.31;;;8.50;52.32
34034;BME280;63481;52.588;22.472;2023-05-12T01:40:58;101041.86;;;8.48;52.45
34034;BME280;63481;52.588;22.472;2023-05-12T01:41:30;101043.48;;;8.50;52.39
34034;BME280;63481;52.588;22.472;2023-05-12T01:42:03;101047.91;;;8.48;52.17
34034;BME280;63481;52.588;22.472;2023-05-12T01:42:38;101049.54;;;8.52;52.47
34034;BME280;63481;52.588;22.472;2023-05-12T01:43:11;101047.71;;;8.53;52.15
34034;BME280;63481;52.588;22.472;2023-05-12T01:43:43;101049.21;;;8.51;52.32
34034;BME280;63481;52.588;22.472;2023-05-12T01:44:15;101046.59;;;8.48;52.14
34034;BME280;63481;52.588;22.472;2023-05-12T01:44:47;101050.77;;;8.47;52.11
34034;BME280;63481;52.588;22.472;2023-05-12T01:45:19;101048.58;;;8.49;52.39
34034;BME280;63481;52.588;22.472;2023-05-12T01:45:51;101049.48;;;8.49;52.44
34034;BME280;63481;52.588;22.472;2023-05-12T01:46:23;101049.94;;;8.49;52.34
34034;BME280;63481;52.588;22.472;2023-05-12T01:46:56;101050.58;;;8.47;52.18
34034;BME280;63481;52.588;22.472;2023-05-12T01:47:28;101049.46;;;8.46;52.26
34034;BME280;63481;52.588;22.472;2023-05-12T01:48:07;101053.96;;;8.47;52.15
34034;BME280;63481;52.588;22.472;2023-05-12T01:48:39;101053.35;;;8.49;52.30
34034;BME280;63481;52.588;22.472;2023-05-12T01:49:12;101055.05;;;8.46;52.19
34034;BME280;63481;52.588;22.472;2023-05-12T01:49:44;101049.57;;;8.46;52.43
34034;BME280;63481;52.588;22.472;2023-05-12T01:50:19;101054.98;;;8.47;52.25
34034;BME280;63481;52.588;22.472;2023-05-12T01:50:51;101056.93;;;8.50;52.22
34034;BME280;63481;52.588;22.472;2023-05-12T01:51:25;101053.77;;;8.51;52.65
34034;BME280;63481;52.588;22.472;2023-05-12T01:51:57;101051.90;;;8.52;52.21
34034;BME280;63481;52.588;22.472;2023-05-12T01:52:34;101055.08;;;8.52;52.05
34034;BME280;63481;52.588;22.472;2023-05-12T01:53:07;101052.81;;;8.50;52.20
34034;BME280;63481;52.588;22.472;2023-05-12T01:53:41;101053.34;;;8.52;52.02
34034;BME280;63481;52.588;22.472;2023-05-12T01:54:13;101057.95;;;8.55;52.00
34034;BME280;63481;52.588;22.472;2023-05-12T01:54:45;101054.00;;;8.60;52.70
34034;BME280;63481;52.588;22.472;2023-05-12T01:55:18;101054.73;;;8.60;52.09
34034;BME280;63481;52.588;22.472;2023-05-12T01:56:01;101053.64;;;8.52;52.26
34034;BME280;63481;52.588;22.472;2023-05-12T01:56:34;101053.43;;;8.51;52.20
34034;BME280;63481;52.588;22.472;2023-05-12T01:57:06;101054.88;;;8.51;52.13
34034;BME280;63481;52.588;22.472;2023-05-12T01:57:39;101055.76;;;8.48;52.12
34034;BME280;63481;52.588;22.472;2023-05-12T01:58:11;101061.15;;;8.44;52.26
34034;BME280;63481;52.588;22.472;2023-05-12T01:58:43;101060.65;;;8.44;52.25
34034;BME280;63481;52.588;22.472;2023-05-12T01:59:15;101060.86;;;8.42;52.59
34034;BME280;63481;52.588;22.472;2023-05-12T01:59:47;101057.15;;;8.40;52.21
34034;BME280;63481;52.588;22.472;2023-05-12T02:00:19;101057.10;;;8.42;52.21
34034;BME280;63481;52.588;22.472;2023-05-12T02:00:52;101058.14;;;8.41;52.38
34034;BME280;63481;52.588;22.472;2023-05-12T02:01:24;101058.59;;;8.45;52.40
34034;BME280;63481;52.588;22.472;2023-05-12T02:01:59;101060.73;;;8.48;52.10
34034;BME280;63481;52.588;22.472;2023-05-12T02:02:34;101059.25;;;8.50;52.25
34034;BME280;63481;52.588;22.472;2023-05-12T02:03:06;101059.80;;;8.50;52.54
34034;BME280;63481;52.588;22.472;2023-05-12T02:03:38;101057.36;;;8.45;52.61
34034;BME280;63481;52.588;22.472;2023-05-12T02:04:16;101058.57;;;8.40;52.74
34034;BME280;63481;52.588;22.472;2023-05-12T02:04:49;101058.28;;;8.38;52.34
34034;BME280;63481;52.588;22.472;2023-05-12T02:05:21;101058.01;;;8.34;52.52
34034;BME280;63481;52.588;22.472;2023-05-12T02:05:54;101054.70;;;8.40;52.45
34034;BME280;63481;52.588;22.472;2023-05-12T02:06:26;101059.52;;;8.43;52.32
34034;BME280;63481;52.588;22.472;2023-05-12T02:06:59;101057.77;;;8.41;52.37
34034;BME280;63481;52.588;22.472;2023-05-12T02:07:32;101057.75;;;8.40;52.45
34034;BME280;63481;52.588;22.472;2023-05-12T02:08:04;101055.26;;;8.40;52.46
34034;BME280;63481;52.588;22.472;2023-05-12T02:08:36;101057.55;;;8.36;52.36
34034;BME280;63481;52.588;22.472;2023-05-12T02:09:08;101057.91;;;8.33;52.84
34034;BME280;63481;52.588;22.472;2023-05-12T02:09:40;101058.08;;;8.28;52.47
34034;BME280;63481;52.588;22.472;2023-05-12T02:10:12;101059.15;;;8.25;52.84
34034;BME280;63481;52.588;22.472;2023-05-12T02:10:44;101058.52;;;8.21;52.96
34034;BME280;63481;52.588;22.472;2023-05-12T02:11:17;101054.39;;;8.22;52.64
34034;BME280;63481;52.588;22.472;2023-05-12T02:11:49;101056.33;;;8.22;52.71
34034;BME280;63481;52.588;22.472;2023-05-12T02:12:21;101060.20;;;8.24;52.93
34034;BME280;63481;52.588;22.472;2023-05-12T02:12:53;101053.63;;;8.22;52.80
34034;BME280;63481;52.588;22.472;2023-05-12T02:13:25;101054.46;;;8.20;52.96
34034;BME280;63481;52.588;22.472;2023-05-12T02:13:57;101057.83;;;8.17;53.36
34034;BME280;63481;52.588;22.472;2023-05-12T02:14:29;101062.66;;;8.11;53.33
34034;BME280;63481;52.588;22.472;2023-05-12T02:15:01;101060.84;;;8.10;53.49
34034;BME280;63481;52.588;22.472;2023-05-12T02:15:34;101062.02;;;8.11;53.54
34034;BME280;63481;52.588;22.472;2023-05-12T02:16:06;101060.77;;;8.09;53.28
34034;BME280;63481;52.588;22.472;2023-05-12T02:16:38;101055.67;;;8.07;53.37
34034;BME280;63481;52.588;22.472;2023-05-12T02:17:10;101060.02;;;8.03;53.49
34034;BME280;63481;52.588;22.472;2023-05-12T02:17:42;101063.35;;;7.99;53.36
34034;BME280;63481;52.588;22.472;2023-05-12T02:18:14;101063.39;;;8.00;53.54
34034;BME280;63481;52.588;22.472;2023-05-12T02:18:47;101062.66;;;7.97;53.83
34034;BME280;63481;52.588;22.472;2023-05-12T02:19:19;101057.83;;;7.96;53.88
34034;BME280;63481;52.588;22.472;2023-05-12T02:19:52;101058.79;;;8.03;53.30
34034;BME280;63481;52.588;22.472;2023-05-12T02:20:24;101060.88;;;8.05;53.48
34034;BME280;63481;52.588;22.472;2023-05-12T02:20:56;101059.48;;;8.05;53.41
34034;BME280;63481;52.588;22.472;2023-05-12T02:21:28;101060.91;;;8.05;53.18
34034;BME280;63481;52.588;22.472;2023-05-12T02:22:00;101061.39;;;8.04;53.33
34034;BME280;63481;52.588;22.472;2023-05-12T02:22:34;101063.18;;;8.04;53.57
34034;BME280;63481;52.588;22.472;2023-05-12T02:23:05;101064.21;;;8.04;53.78
34034;BME280;63481;52.588;22.472;2023-05-12T02:23:37;101063.30;;;8.04;53.45
34034;BME280;63481;52.588;22.472;2023-05-12T02:24:09;101064.31;;;8.03;53.24
34034;BME280;63481;52.588;22.472;2023-05-12T02:24:41;101065.48;;;7.99;53.63
34034;BME280;63481;52.588;22.472;2023-05-12T02:25:13;101064.45;;;7.97;53.73
34034;BME280;63481;52.588;22.472;2023-05-12T02:25:45;101067.87;;;7.97;53.24
34034;BME280;63481;52.588;22.472;2023-05-12T02:26:17;101065.37;;;8.05;53.36
34034;BME280;63481;52.588;22.472;2023-05-12T02:26:50;101066.88;;;8.10;53.10
34034;BME280;63481;52.588;22.472;2023-05-12T02:27:22;101063.73;;;8.10;53.03
34034;BME280;63481;52.588;22.472;2023-05-12T02:27:54;101066.09;;;8.09;53.09
34034;BME280;63481;52.588;22.472;2023-05-12T02:28:25;101070.67;;;8.05;53.07
34034;BME280;63481;52.588;22.472;2023-05-12T02:28:57;101069.09;;;8.03;53.20
34034;BME280;63481;52.588;22.472;2023-05-12T02:29:29;101069.73;;;8.04;53.61
34034;BME280;63481;52.588;22.472;2023-05-12T02:30:01;101070.88;;;8.03;53.14
34034;BME280;63481;52.588;22.472;2023-05-12T02:30:33;101069.45;;;8.05;53.30
34034;BME280;63481;52.588;22.472;2023-05-12T02:31:05;101071.47;;;8.07;53.46
34034;BME280;63481;52.588;22.472;2023-05-12T02:31:37;101067.98;;;8.10;53.10
34034;BME280;63481;52.588;22.472;2023-05-12T02:32:16;101066.76;;;8.07;53.32
34034;BME280;63481;52.588;22.472;2023-05-12T02:32:51;101067.86;;;8.03;53.27
34034;BME280;63481;52.588;22.472;2023-05-12T02:33:23;101071.52;;;8.02;53.46
34034;BME280;63481;52.588;22.472;2023-05-12T02:33:55;101072.35;;;7.98;53.90
34034;BME280;63481;52.588;22.472;2023-05-12T02:34:29;101068.52;;;7.92;54.04
34034;BME280;63481;52.588;22.472;2023-05-12T02:35:01;101071.27;;;7.92;53.70
34034;BME280;63481;52.588;22.472;2023-05-12T02:35:33;101068.63;;;7.88;54.00
34034;BME280;63481;52.588;22.472;2023-05-12T02:36:06;101069.88;;;7.87;53.89
34034;BME280;63481;52.588;22.472;2023-05-12T02:36:38;101066.66;;;7.85;53.73
34034;BME280;63481;52.588;22.472;2023-05-12T02:37:10;101068.95;;;7.86;53.83
34034;BME280;63481;52.588;22.472;2023-05-12T02:37:42;101072.46;;;7.89;53.70
34034;BME280;63481;52.588;22.472;2023-05-12T02:38:14;101069.41;;;7.88;53.84
34034;BME280;63481;52.588;22.472;2023-05-12T02:38:46;101071.17;;;7.91;53.59
34034;BME280;63481;52.588;22.472;2023-05-12T02:39:18;101070.94;;;7.93;53.66
34034;BME280;63481;52.588;22.472;2023-05-12T02:39:50;101070.64;;;7.88;53.93
34034;BME280;63481;52.588;22.472;2023-05-12T02:40:22;101067.66;;;7.83;53.93
34034;BME280;63481;52.588;22.472;2023-05-12T02:40:54;101069.06;;;7.81;53.91
34034;BME280;63481;52.588;22.472;2023-05-12T02:41:26;101067.98;;;7.82;54.03
34034;BME280;63481;52.588;22.472;2023-05-12T02:41:58;101073.20;;;7.79;54.09
34034;BME280;63481;52.588;22.472;2023-05-12T02:42:30;101070.90;;;7.77;54.17
34034;BME280;63481;52.588;22.472;2023-05-12T02:43:06;101068.54;;;7.76;54.39
34034;BME280;63481;52.588;22.472;2023-05-12T02:43:38;101070.30;;;7.78;54.36
34034;BME280;63481;52.588;22.472;2023-05-12T02:44:10;101070.09;;;7.79;54.18
34034;BME280;63481;52.588;22.472;2023-05-12T02:44:42;101067.80;;;7.81;53.86
34034;BME280;63481;52.588;22.472;2023-05-12T02:45:14;101068.91;;;7.87;53.82
34034;BME280;63481;52.588;22.472;2023-05-12T02:45:46;101071.34;;;7.89;53.80
34034;BME280;63481;52.588;22.472;2023-05-12T02:46:18;101069.12;;;7.87;53.84
34034;BME280;63481;52.588;22.472;2023-05-12T02:46:50;101067.30;;;7.88;53.60
34034;BME280;63481;52.588;22.472;2023-05-12T02:47:22;101069.11;;;7.89;53.40
34034;BME280;63481;52.588;22.472;2023-05-12T02:47:55;101067.15;;;7.84;53.87
34034;BME280;63481;52.588;22.472;2023-05-12T02:48:27;101070.02;;;7.80;53.93
34034;BME280;63481;52.588;22.472;2023-05-12T02:48:59;101066.64;;;7.76;53.66
34034;BME280;63481;52.588;22.472;2023-05-12T02:49:31;101068.48;;;7.78;53.90
34034;BME280;63481;52.588;22.472;2023-05-12T02:50:03;101068.80;;;7.80;54.26
34034;BME280;63481;52.588;22.472;2023-05-12T02:50:36;101069.52;;;7.82;54.13
34034;BME280;63481;52.588;22.472;2023-05-12T02:51:08;101070.44;;;7.89;53.54
34034;BME280;63481;52.588;22.472;2023-05-12T02:51:40;101066.80;;;7.89;53.29
34034;BME280;63481;52.588;22.472;2023-05-12T02:52:11;101070.18;;;7.87;53.74